sensor_id;sensor_type;location;lat;lon;timestamp;P1;durP1;ratioP1;P2;durP2;ratioP2
69970;SDS011;57301;50.328;8.542;2023-08-24T00:01:23;7.93;;;3.65;;
69970;SDS011;57301;50.328;8.542;2023-08-24T00:03:50;6.95;;;4.13;;
69970;SDS011;57301;50.328;8.542;2023-08-24T00:06:16;5.97;;;3.97;;
69970;SDS011;57301;50.328;8.542;2023-08-24T00:08:44;7.85;;;4.30;;
69970;SDS011;57301;50.328;8.542;2023-08-24T00:11:10;6.00;;;3.58;;
69970;SDS011;57301;50.328;8.542;2023-08-24T00:13:41;6.50;;;3.88;;
69970;SDS011;57301;50.328;8.542;2023-08-24T00:16:12;7.15;;;3.80;;
69970;SDS011;57301;50.328;8.542;2023-08-24T00:18:39;6.67;;;3.97;;
69970;SDS011;57301;50.328;8.542;2023-08-24T00:21:05;6.20;;;3.90;;
69970;SDS011;57301;50.328;8.542;2023-08-24T00:23:33;5.07;;;3.45;;
69970;SDS011;57301;50.328;8.542;2023-08-24T00:26:00;7.38;;;4.00;;
69970;SDS011;57301;50.328;8.542;2023-08-24T00:28:26;10.73;;;3.80;;
69970;SDS011;57301;50.328;8.542;2023-08-24T00:30:53;7.17;;;3.57;;
69970;SDS011;57301;50.328;8.542;2023-08-24T00:33:19;5.53;;;3.60;;
69970;SDS011;57301;50.328;8.542;2023-08-24T00:35:46;7.30;;;3.90;;
69970;SDS011;57301;50.328;8.542;2023-08-24T00:38:12;5.80;;;3.38;;
69970;SDS011;57301;50.328;8.542;2023-08-24T00:40:41;7.40;;;3.67;;
69970;SDS011;57301;50.328;8.542;2023-08-24T00:43:08;5.63;;;3.63;;
69970;SDS011;57301;50.328;8.542;2023-08-24T00:45:34;7.07;;;3.97;;
69970;SDS011;57301;50.328;8.542;2023-08-24T00:48:02;9.95;;;3.95;;
69970;SDS011;57301;50.328;8.542;2023-08-24T00:50:29;7.90;;;3.80;;
69970;SDS011;57301;50.328;8.542;2023-08-24T00:52:56;8.88;;;3.83;;
69970;SDS011;57301;50.328;8.542;2023-08-24T00:55:22;8.03;;;3.43;;
69970;SDS011;57301;50.328;8.542;2023-08-24T00:57:49;6.30;;;3.65;;
69970;SDS011;57301;50.328;8.542;2023-08-24T01:00:17;8.15;;;3.90;;
69970;SDS011;57301;50.328;8.542;2023-08-24T01:02:43;6.97;;;3.90;;
69970;SDS011;57301;50.328;8.542;2023-08-24T01:05:10;6.57;;;3.40;;
69970;SDS011;57301;50.328;8.542;2023-08-24T01:07:37;8.43;;;3.90;;
69970;SDS011;57301;50.328;8.542;2023-08-24T01:10:05;6.05;;;4.00;;
69970;SDS011;57301;50.328;8.542;2023-08-24T01:15:12;8.13;;;4.20;;
69970;SDS011;57301;50.328;8.542;2023-08-24T01:17:42;10.68;;;4.22;;
69970;SDS011;57301;50.328;8.542;2023-08-24T01:20:10;6.93;;;3.80;;
69970;SDS011;57301;50.328;8.542;2023-08-24T01:22:46;7.40;;;3.63;;
69970;SDS011;57301;50.328;8.542;2023-08-24T01:28:30;8.55;;;3.90;;
69970;SDS011;57301;50.328;8.542;2023-08-24T01:30:57;7.28;;;3.70;;
69970;SDS011;57301;50.328;8.542;2023-08-24T01:33:24;5.70;;;3.63;;
69970;SDS011;57301;50.328;8.542;2023-08-24T01:35:51;6.45;;;3.65;;
69970;SDS011;57301;50.328;8.542;2023-08-24T01:38:17;5.30;;;3.65;;
69970;SDS011;57301;50.328;8.542;2023-08-24T01:43:35;8.38;;;3.38;;
69970;SDS011;57301;50.328;8.542;2023-08-24T01:46:06;9.43;;;3.60;;
69970;SDS011;57301;50.328;8.542;2023-08-24T01:48:33;7.53;;;3.75;;
69970;SDS011;57301;50.328;8.542;2023-08-24T01:51:01;6.63;;;3.50;;
69970;SDS011;57301;50.328;8.542;2023-08-24T01:53:30;7.30;;;3.88;;
69970;SDS011;57301;50.328;8.542;2023-08-24T01:55:57;8.32;;;4.50;;
69970;SDS011;57301;50.328;8.542;2023-08-24T01:58:24;12.63;;;7.00;;
69970;SDS011;57301;50.328;8.542;2023-08-24T02:00:50;14.77;;;8.60;;
69970;SDS011;57301;50.328;8.542;2023-08-24T02:03:17;11.38;;;7.25;;
69970;SDS011;57301;50.328;8.542;2023-08-24T02:05:44;9.07;;;5.55;;
69970;SDS011;57301;50.328;8.542;2023-08-24T02:08:10;9.73;;;4.88;;
69970;SDS011;57301;50.328;8.542;2023-08-24T02:10:36;4.77;;;4.03;;
69970;SDS011;57301;50.328;8.542;2023-08-24T02:13:03;7.18;;;4.43;;
69970;SDS011;57301;50.328;8.542;2023-08-24T02:15:29;5.88;;;4.03;;
69970;SDS011;57301;50.328;8.542;2023-08-24T02:17:56;6.15;;;3.70;;
69970;SDS011;57301;50.328;8.542;2023-08-24T02:20:22;8.15;;;4.18;;
69970;SDS011;57301;50.328;8.542;2023-08-24T02:22:49;6.23;;;4.47;;
69970;SDS011;57301;50.328;8.542;2023-08-24T02:25:15;5.63;;;4.03;;
69970;SDS011;57301;50.328;8.542;2023-08-24T02:27:42;5.38;;;3.83;;
69970;SDS011;57301;50.328;8.542;2023-08-24T02:30:08;4.75;;;3.58;;
69970;SDS011;57301;50.328;8.542;2023-08-24T02:32:35;5.60;;;3.67;;
69970;SDS011;57301;50.328;8.542;2023-08-24T02:35:02;5.80;;;3.70;;
69970;SDS011;57301;50.328;8.542;2023-08-24T02:37:28;5.95;;;3.78;;
69970;SDS011;57301;50.328;8.542;2023-08-24T02:39:55;5.50;;;4.00;;
69970;SDS011;57301;50.328;8.542;2023-08-24T02:42:21;5.90;;;4.15;;
69970;SDS011;57301;50.328;8.542;2023-08-24T02:44:48;6.05;;;3.53;;
69970;SDS011;57301;50.328;8.542;2023-08-24T02:47:15;6.13;;;3.93;;
69970;SDS011;57301;50.328;8.542;2023-08-24T02:49:41;6.38;;;3.70;;
69970;SDS011;57301;50.328;8.542;2023-08-24T02:52:08;6.43;;;3.63;;
69970;SDS011;57301;50.328;8.542;2023-08-24T02:54:35;7.70;;;3.92;;
69970;SDS011;57301;50.328;8.542;2023-08-24T02:57:01;6.47;;;3.80;;
69970;SDS011;57301;50.328;8.542;2023-08-24T02:59:28;7.33;;;4.07;;
69970;SDS011;57301;50.328;8.542;2023-08-24T03:01:54;5.25;;;3.60;;
69970;SDS011;57301;50.328;8.542;2023-08-24T03:04:21;6.15;;;3.70;;
69970;SDS011;57301;50.328;8.542;2023-08-24T03:06:48;5.53;;;4.15;;
69970;SDS011;57301;50.328;8.542;2023-08-24T03:09:15;6.82;;;3.97;;
69970;SDS011;57301;50.328;8.542;2023-08-24T03:11:41;8.00;;;3.90;;
69970;SDS011;57301;50.328;8.542;2023-08-24T03:14:08;5.85;;;3.58;;
69970;SDS011;57301;50.328;8.542;2023-08-24T03:16:34;9.30;;;4.10;;
69970;SDS011;57301;50.328;8.542;2023-08-24T03:19:03;4.82;;;3.78;;
69970;SDS011;57301;50.328;8.542;2023-08-24T03:21:29;8.23;;;4.00;;
69970;SDS011;57301;50.328;8.542;2023-08-24T03:23:56;6.43;;;4.03;;
69970;SDS011;57301;50.328;8.542;2023-08-24T03:26:23;5.45;;;3.65;;
69970;SDS011;57301;50.328;8.542;2023-08-24T03:28:49;6.35;;;3.95;;
69970;SDS011;57301;50.328;8.542;2023-08-24T03:31:16;8.50;;;4.20;;
69970;SDS011;57301;50.328;8.542;2023-08-24T03:33:42;5.95;;;4.32;;
69970;SDS011;57301;50.328;8.542;2023-08-24T03:36:09;5.23;;;3.97;;
69970;SDS011;57301;50.328;8.542;2023-08-24T03:38:35;6.03;;;4.75;;
69970;SDS011;57301;50.328;8.542;2023-08-24T03:41:02;6.47;;;4.00;;
69970;SDS011;57301;50.328;8.542;2023-08-24T03:43:31;5.97;;;4.00;;
69970;SDS011;57301;50.328;8.542;2023-08-24T03:45:58;5.13;;;3.85;;
69970;SDS011;57301;50.328;8.542;2023-08-24T03:48:25;6.10;;;4.10;;
69970;SDS011;57301;50.328;8.542;2023-08-24T03:50:55;8.88;;;4.28;;
69970;SDS011;57301;50.328;8.542;2023-08-24T03:53:24;7.07;;;4.43;;
69970;SDS011;57301;50.328;8.542;2023-08-24T03:55:51;6.82;;;4.60;;
69970;SDS011;57301;50.328;8.542;2023-08-24T03:58:18;7.78;;;4.47;;
69970;SDS011;57301;50.328;8.542;2023-08-24T04:00:44;9.33;;;4.30;;
69970;SDS011;57301;50.328;8.542;2023-08-24T04:03:11;5.72;;;4.28;;
69970;SDS011;57301;50.328;8.542;2023-08-24T04:05:38;8.32;;;4.13;;
69970;SDS011;57301;50.328;8.542;2023-08-24T04:08:05;8.90;;;4.18;;
69970;SDS011;57301;50.328;8.542;2023-08-24T04:10:31;7.57;;;4.28;;
69970;SDS011;57301;50.328;8.542;2023-08-24T04:12:58;9.07;;;4.17;;
69970;SDS011;57301;50.328;8.542;2023-08-24T04:15:25;6.57;;;4.40;;
69970;SDS011;57301;50.328;8.542;2023-08-24T04:17:51;6.20;;;4.30;;
69970;SDS011;57301;50.328;8.542;2023-08-24T04:20:18;5.45;;;4.03;;
69970;SDS011;57301;50.328;8.542;2023-08-24T04:22:45;5.90;;;4.07;;
69970;SDS011;57301;50.328;8.542;2023-08-24T04:25:11;6.63;;;4.57;;
69970;SDS011;57301;50.328;8.542;2023-08-24T04:27:38;7.22;;;4.10;;
69970;SDS011;57301;50.328;8.542;2023-08-24T04:30:04;7.85;;;4.43;;
69970;SDS011;57301;50.328;8.542;2023-08-24T04:32:32;8.90;;;4.97;;
69970;SDS011;57301;50.328;8.542;2023-08-24T04:34:59;8.10;;;4.60;;
69970;SDS011;57301;50.328;8.542;2023-08-24T04:37:25;7.33;;;4.00;;
69970;SDS011;57301;50.328;8.542;2023-08-24T04:39:52;6.78;;;4.40;;
69970;SDS011;57301;50.328;8.542;2023-08-24T04:42:18;5.50;;;4.10;;
69970;SDS011;57301;50.328;8.542;2023-08-24T04:44:45;8.02;;;4.57;;
69970;SDS011;57301;50.328;8.542;2023-08-24T04:47:12;7.10;;;4.50;;
69970;SDS011;57301;50.328;8.542;2023-08-24T04:49:38;8.32;;;4.70;;
69970;SDS011;57301;50.328;8.542;2023-08-24T04:52:05;7.30;;;5.03;;
69970;SDS011;57301;50.328;8.542;2023-08-24T04:54:32;8.10;;;5.30;;
69970;SDS011;57301;50.328;8.542;2023-08-24T04:56:59;9.65;;;5.05;;
69970;SDS011;57301;50.328;8.542;2023-08-24T04:59:25;9.63;;;4.93;;
69970;SDS011;57301;50.328;8.542;2023-08-24T05:01:52;7.57;;;4.20;;
69970;SDS011;57301;50.328;8.542;2023-08-24T05:04:19;7.57;;;4.97;;
69970;SDS011;57301;50.328;8.542;2023-08-24T05:06:45;7.78;;;4.50;;
69970;SDS011;57301;50.328;8.542;2023-08-24T05:09:12;7.90;;;4.35;;
69970;SDS011;57301;50.328;8.542;2023-08-24T05:11:38;7.80;;;4.40;;
69970;SDS011;57301;50.328;8.542;2023-08-24T05:14:05;8.38;;;4.53;;
69970;SDS011;57301;50.328;8.542;2023-08-24T05:16:31;7.30;;;4.43;;
69970;SDS011;57301;50.328;8.542;2023-08-24T05:18:58;8.13;;;4.38;;
69970;SDS011;57301;50.328;8.542;2023-08-24T05:21:25;6.13;;;4.47;;
69970;SDS011;57301;50.328;8.542;2023-08-24T05:23:51;7.23;;;4.33;;
69970;SDS011;57301;50.328;8.542;2023-08-24T05:26:18;8.43;;;4.20;;
69970;SDS011;57301;50.328;8.542;2023-08-24T05:28:49;7.30;;;4.22;;
69970;SDS011;57301;50.328;8.542;2023-08-24T05:31:15;5.65;;;4.32;;
69970;SDS011;57301;50.328;8.542;2023-08-24T05:33:46;8.70;;;4.65;;
69970;SDS011;57301;50.328;8.542;2023-08-24T05:36:12;6.70;;;4.37;;
69970;SDS011;57301;50.328;8.542;2023-08-24T05:38:39;7.75;;;4.72;;
69970;SDS011;57301;50.328;8.542;2023-08-24T05:41:25;8.82;;;5.20;;
69970;SDS011;57301;50.328;8.542;2023-08-24T05:43:51;6.30;;;4.50;;
69970;SDS011;57301;50.328;8.542;2023-08-24T05:46:18;7.30;;;5.22;;
69970;SDS011;57301;50.328;8.542;2023-08-24T05:48:45;11.23;;;4.87;;
69970;SDS011;57301;50.328;8.542;2023-08-24T05:51:12;6.97;;;4.15;;
69970;SDS011;57301;50.328;8.542;2023-08-24T05:53:38;5.50;;;4.30;;
69970;SDS011;57301;50.328;8.542;2023-08-24T05:56:06;6.60;;;4.07;;
69970;SDS011;57301;50.328;8.542;2023-08-24T05:58:33;6.35;;;4.63;;
69970;SDS011;57301;50.328;8.542;2023-08-24T06:01:00;9.83;;;6.23;;
69970;SDS011;57301;50.328;8.542;2023-08-24T06:03:26;5.80;;;4.30;;
69970;SDS011;57301;50.328;8.542;2023-08-24T06:05:53;9.85;;;4.35;;
69970;SDS011;57301;50.328;8.542;2023-08-24T06:08:19;6.65;;;4.22;;
69970;SDS011;57301;50.328;8.542;2023-08-24T06:10:46;8.32;;;4.10;;
69970;SDS011;57301;50.328;8.542;2023-08-24T06:13:12;6.67;;;4.60;;
69970;SDS011;57301;50.328;8.542;2023-08-24T06:15:39;10.00;;;4.95;;
69970;SDS011;57301;50.328;8.542;2023-08-24T06:18:06;6.93;;;4.82;;
69970;SDS011;57301;50.328;8.542;2023-08-24T06:20:33;5.78;;;4.30;;
69970;SDS011;57301;50.328;8.542;2023-08-24T06:22:59;7.82;;;5.40;;
69970;SDS011;57301;50.328;8.542;2023-08-24T06:25:26;7.10;;;5.23;;
69970;SDS011;57301;50.328;8.542;2023-08-24T06:27:53;7.95;;;5.43;;
69970;SDS011;57301;50.328;8.542;2023-08-24T06:30:19;14.00;;;4.95;;
69970;SDS011;57301;50.328;8.542;2023-08-24T06:32:46;6.05;;;4.82;;
69970;SDS011;57301;50.328;8.542;2023-08-24T06:35:12;7.22;;;4.70;;
69970;SDS011;57301;50.328;8.542;2023-08-24T06:37:42;6.57;;;4.80;;
69970;SDS011;57301;50.328;8.542;2023-08-24T06:40:09;8.35;;;5.70;;
69970;SDS011;57301;50.328;8.542;2023-08-24T06:42:36;10.77;;;7.10;;
69970;SDS011;57301;50.328;8.542;2023-08-24T06:45:03;9.05;;;5.75;;
69970;SDS011;57301;50.328;8.542;2023-08-24T06:47:30;7.47;;;5.20;;
69970;SDS011;57301;50.328;8.542;2023-08-24T06:49:56;9.03;;;5.30;;
69970;SDS011;57301;50.328;8.542;2023-08-24T06:52:23;9.35;;;5.28;;
69970;SDS011;57301;50.328;8.542;2023-08-24T06:54:50;7.13;;;5.65;;
69970;SDS011;57301;50.328;8.542;2023-08-24T06:57:19;7.93;;;5.30;;
69970;SDS011;57301;50.328;8.542;2023-08-24T06:59:46;10.05;;;6.68;;
69970;SDS011;57301;50.328;8.542;2023-08-24T07:02:13;8.73;;;6.37;;
69970;SDS011;57301;50.328;8.542;2023-08-24T07:04:40;12.75;;;6.90;;
69970;SDS011;57301;50.328;8.542;2023-08-24T07:07:06;9.80;;;6.30;;
69970;SDS011;57301;50.328;8.542;2023-08-24T07:09:33;10.68;;;6.25;;
69970;SDS011;57301;50.328;8.542;2023-08-24T07:12:03;7.88;;;5.60;;
69970;SDS011;57301;50.328;8.542;2023-08-24T07:14:33;9.27;;;5.63;;
69970;SDS011;57301;50.328;8.542;2023-08-24T07:16:59;10.52;;;6.03;;
69970;SDS011;57301;50.328;8.542;2023-08-24T07:19:26;13.13;;;8.30;;
69970;SDS011;57301;50.328;8.542;2023-08-24T07:21:53;9.30;;;6.18;;
69970;SDS011;57301;50.328;8.542;2023-08-24T07:24:19;9.45;;;5.65;;
69970;SDS011;57301;50.328;8.542;2023-08-24T07:27:00;6.57;;;4.13;;
69970;SDS011;57301;50.328;8.542;2023-08-24T07:29:26;5.97;;;4.70;;
69970;SDS011;57301;50.328;8.542;2023-08-24T07:31:53;6.97;;;5.10;;
69970;SDS011;57301;50.328;8.542;2023-08-24T07:34:19;8.73;;;5.60;;
69970;SDS011;57301;50.328;8.542;2023-08-24T07:36:48;8.50;;;4.88;;
69970;SDS011;57301;50.328;8.542;2023-08-24T07:39:14;7.80;;;5.10;;
69970;SDS011;57301;50.328;8.542;2023-08-24T07:41:41;8.95;;;5.00;;
69970;SDS011;57301;50.328;8.542;2023-08-24T07:44:08;8.60;;;4.75;;
69970;SDS011;57301;50.328;8.542;2023-08-24T07:46:34;6.78;;;5.25;;
69970;SDS011;57301;50.328;8.542;2023-08-24T07:49:01;8.02;;;5.00;;
69970;SDS011;57301;50.328;8.542;2023-08-24T07:51:27;5.97;;;4.60;;
69970;SDS011;57301;50.328;8.542;2023-08-24T07:53:55;9.38;;;5.18;;
69970;SDS011;57301;50.328;8.542;2023-08-24T07:56:21;9.13;;;4.97;;
69970;SDS011;57301;50.328;8.542;2023-08-24T07:58:49;7.07;;;5.20;;
69970;SDS011;57301;50.328;8.542;2023-08-24T08:01:15;9.02;;;5.38;;
69970;SDS011;57301;50.328;8.542;2023-08-24T08:03:42;10.33;;;5.70;;
69970;SDS011;57301;50.328;8.542;2023-08-24T08:06:09;8.55;;;5.65;;
69970;SDS011;57301;50.328;8.542;2023-08-24T08:08:35;9.80;;;5.32;;
69970;SDS011;57301;50.328;8.542;2023-08-24T08:11:02;8.63;;;5.63;;
69970;SDS011;57301;50.328;8.542;2023-08-24T08:13:29;8.57;;;5.10;;
69970;SDS011;57301;50.328;8.542;2023-08-24T08:16:01;7.83;;;4.70;;
69970;SDS011;57301;50.328;8.542;2023-08-24T08:18:31;9.40;;;4.90;;
69970;SDS011;57301;50.328;8.542;2023-08-24T08:20:59;6.80;;;4.72;;
69970;SDS011;57301;50.328;8.542;2023-08-24T08:23:25;6.80;;;4.70;;
69970;SDS011;57301;50.328;8.542;2023-08-24T08:25:52;8.88;;;5.10;;
69970;SDS011;57301;50.328;8.542;2023-08-24T08:28:19;7.23;;;4.60;;
69970;SDS011;57301;50.328;8.542;2023-08-24T08:30:47;8.20;;;4.72;;
69970;SDS011;57301;50.328;8.542;2023-08-24T08:33:15;8.88;;;4.68;;
69970;SDS011;57301;50.328;8.542;2023-08-24T08:35:43;8.63;;;4.97;;
69970;SDS011;57301;50.328;8.542;2023-08-24T08:38:10;6.40;;;4.35;;
69970;SDS011;57301;50.328;8.542;2023-08-24T08:40:37;5.63;;;4.20;;
69970;SDS011;57301;50.328;8.542;2023-08-24T08:43:04;7.03;;;4.28;;
69970;SDS011;57301;50.328;8.542;2023-08-24T08:45:31;8.23;;;4.30;;
69970;SDS011;57301;50.328;8.542;2023-08-24T08:47:59;5.80;;;3.80;;
69970;SDS011;57301;50.328;8.542;2023-08-24T08:50:31;5.40;;;3.42;;
69970;SDS011;57301;50.328;8.542;2023-08-24T08:52:59;5.50;;;4.03;;
69970;SDS011;57301;50.328;8.542;2023-08-24T08:55:26;6.45;;;3.85;;
69970;SDS011;57301;50.328;8.542;2023-08-24T08:57:55;4.82;;;3.47;;
69970;SDS011;57301;50.328;8.542;2023-08-24T09:00:24;7.53;;;4.10;;
69970;SDS011;57301;50.328;8.542;2023-08-24T09:02:52;11.65;;;7.50;;
69970;SDS011;57301;50.328;8.542;2023-08-24T09:05:20;8.07;;;4.33;;
69970;SDS011;57301;50.328;8.542;2023-08-24T09:07:47;8.65;;;4.97;;
69970;SDS011;57301;50.328;8.542;2023-08-24T09:10:14;7.18;;;3.75;;
69970;SDS011;57301;50.328;8.542;2023-08-24T09:12:41;5.35;;;3.30;;
69970;SDS011;57301;50.328;8.542;2023-08-24T09:15:08;7.13;;;3.30;;
69970;SDS011;57301;50.328;8.542;2023-08-24T09:17:35;4.83;;;2.90;;
69970;SDS011;57301;50.328;8.542;2023-08-24T09:20:05;4.15;;;2.70;;
69970;SDS011;57301;50.328;8.542;2023-08-24T09:22:41;6.43;;;2.50;;
69970;SDS011;57301;50.328;8.542;2023-08-24T09:25:10;5.03;;;2.47;;
69970;SDS011;57301;50.328;8.542;2023-08-24T09:27:37;5.85;;;2.60;;
69970;SDS011;57301;50.328;8.542;2023-08-24T09:30:03;3.77;;;2.10;;
69970;SDS011;57301;50.328;8.542;2023-08-24T09:32:32;4.63;;;2.42;;
69970;SDS011;57301;50.328;8.542;2023-08-24T09:35:02;6.55;;;2.65;;
69970;SDS011;57301;50.328;8.542;2023-08-24T09:37:37;4.50;;;2.40;;
69970;SDS011;57301;50.328;8.542;2023-08-24T09:40:05;5.38;;;2.42;;
69970;SDS011;57301;50.328;8.542;2023-08-24T09:42:38;3.97;;;2.47;;
69970;SDS011;57301;50.328;8.542;2023-08-24T09:45:12;5.10;;;2.67;;
69970;SDS011;57301;50.328;8.542;2023-08-24T09:47:44;4.50;;;2.80;;
69970;SDS011;57301;50.328;8.542;2023-08-24T09:50:12;6.50;;;2.40;;
69970;SDS011;57301;50.328;8.542;2023-08-24T09:52:38;5.25;;;2.63;;
69970;SDS011;57301;50.328;8.542;2023-08-24T09:55:08;5.87;;;2.60;;
69970;SDS011;57301;50.328;8.542;2023-08-24T09:57:38;5.13;;;2.50;;
69970;SDS011;57301;50.328;8.542;2023-08-24T10:00:09;4.03;;;2.60;;
69970;SDS011;57301;50.328;8.542;2023-08-24T10:02:37;4.50;;;2.63;;
69970;SDS011;57301;50.328;8.542;2023-08-24T10:05:19;3.85;;;2.20;;
69970;SDS011;57301;50.328;8.542;2023-08-24T10:08:04;3.60;;;2.33;;
69970;SDS011;57301;50.328;8.542;2023-08-24T10:10:34;4.13;;;2.30;;
69970;SDS011;57301;50.328;8.542;2023-08-24T10:13:04;4.45;;;2.60;;
69970;SDS011;57301;50.328;8.542;2023-08-24T10:15:37;6.03;;;2.45;;
69970;SDS011;57301;50.328;8.542;2023-08-24T10:18:13;4.15;;;2.58;;
69970;SDS011;57301;50.328;8.542;2023-08-24T10:20:41;4.43;;;2.30;;
69970;SDS011;57301;50.328;8.542;2023-08-24T10:23:11;5.38;;;2.40;;
69970;SDS011;57301;50.328;8.542;2023-08-24T10:25:40;6.57;;;2.72;;
69970;SDS011;57301;50.328;8.542;2023-08-24T10:28:08;6.88;;;2.55;;
69970;SDS011;57301;50.328;8.542;2023-08-24T10:30:38;5.97;;;2.63;;
69970;SDS011;57301;50.328;8.542;2023-08-24T10:33:05;4.23;;;2.30;;
69970;SDS011;57301;50.328;8.542;2023-08-24T10:35:32;7.28;;;2.83;;
69970;SDS011;57301;50.328;8.542;2023-08-24T10:37:59;6.55;;;2.72;;
69970;SDS011;57301;50.328;8.542;2023-08-24T10:40:35;5.07;;;2.55;;
69970;SDS011;57301;50.328;8.542;2023-08-24T10:43:06;3.60;;;2.42;;
69970;SDS011;57301;50.328;8.542;2023-08-24T10:48:23;6.35;;;2.80;;
69970;SDS011;57301;50.328;8.542;2023-08-24T10:56:38;5.28;;;2.75;;
69970;SDS011;57301;50.328;8.542;2023-08-24T10:59:09;6.30;;;2.80;;
69970;SDS011;57301;50.328;8.542;2023-08-24T11:01:39;5.18;;;3.28;;
69970;SDS011;57301;50.328;8.542;2023-08-24T11:04:10;5.35;;;2.70;;
69970;SDS011;57301;50.328;8.542;2023-08-24T11:09:46;5.88;;;2.80;;
69970;SDS011;57301;50.328;8.542;2023-08-24T11:12:15;3.90;;;2.50;;
69970;SDS011;57301;50.328;8.542;2023-08-24T11:15:16;4.22;;;2.70;;
69970;SDS011;57301;50.328;8.542;2023-08-24T11:17:35;6.15;;;2.80;;
69970;SDS011;57301;50.328;8.542;2023-08-24T11:20:03;4.82;;;2.70;;
69970;SDS011;57301;50.328;8.542;2023-08-24T11:22:35;6.43;;;2.60;;
69970;SDS011;57301;50.328;8.542;2023-08-24T11:25:04;5.23;;;2.70;;
69970;SDS011;57301;50.328;8.542;2023-08-24T11:27:30;5.03;;;2.88;;
69970;SDS011;57301;50.328;8.542;2023-08-24T11:30:00;4.60;;;2.85;;
69970;SDS011;57301;50.328;8.542;2023-08-24T11:32:29;8.43;;;3.15;;
69970;SDS011;57301;50.328;8.542;2023-08-24T11:34:59;6.47;;;3.33;;
69970;SDS011;57301;50.328;8.542;2023-08-24T11:37:25;6.90;;;3.10;;
69970;SDS011;57301;50.328;8.542;2023-08-24T11:39:54;5.85;;;3.03;;
69970;SDS011;57301;50.328;8.542;2023-08-24T11:42:23;8.23;;;3.05;;
69970;SDS011;57301;50.328;8.542;2023-08-24T11:44:54;7.13;;;2.83;;
69970;SDS011;57301;50.328;8.542;2023-08-24T11:47:23;6.20;;;2.88;;
69970;SDS011;57301;50.328;8.542;2023-08-24T11:49:50;5.60;;;2.90;;
69970;SDS011;57301;50.328;8.542;2023-08-24T11:52:16;5.35;;;3.00;;
69970;SDS011;57301;50.328;8.542;2023-08-24T11:54:43;6.60;;;3.08;;
69970;SDS011;57301;50.328;8.542;2023-08-24T11:57:12;5.70;;;3.08;;
69970;SDS011;57301;50.328;8.542;2023-08-24T11:59:39;6.13;;;3.03;;
69970;SDS011;57301;50.328;8.542;2023-08-24T12:02:06;5.27;;;3.17;;
69970;SDS011;57301;50.328;8.542;2023-08-24T12:04:39;5.25;;;3.25;;
69970;SDS011;57301;50.328;8.542;2023-08-24T12:07:10;4.63;;;3.30;;
69970;SDS011;57301;50.328;8.542;2023-08-24T12:09:41;5.57;;;3.10;;
69970;SDS011;57301;50.328;8.542;2023-08-24T12:12:15;5.75;;;3.30;;
69970;SDS011;57301;50.328;8.542;2023-08-24T12:14:43;4.90;;;3.20;;
69970;SDS011;57301;50.328;8.542;2023-08-24T12:17:16;7.75;;;3.20;;
69970;SDS011;57301;50.328;8.542;2023-08-24T12:19:45;6.15;;;3.65;;
69970;SDS011;57301;50.328;8.542;2023-08-24T12:22:21;5.35;;;3.03;;
69970;SDS011;57301;50.328;8.542;2023-08-24T12:24:48;4.60;;;3.45;;
69970;SDS011;57301;50.328;8.542;2023-08-24T12:27:18;9.40;;;3.47;;
69970;SDS011;57301;50.328;8.542;2023-08-24T12:29:47;5.68;;;3.47;;
69970;SDS011;57301;50.328;8.542;2023-08-24T12:32:20;9.25;;;3.95;;
69970;SDS011;57301;50.328;8.542;2023-08-24T12:34:53;7.43;;;3.60;;
69970;SDS011;57301;50.328;8.542;2023-08-24T12:37:25;6.85;;;3.78;;
69970;SDS011;57301;50.328;8.542;2023-08-24T12:39:52;7.97;;;3.40;;
69970;SDS011;57301;50.328;8.542;2023-08-24T12:42:20;5.55;;;3.60;;
69970;SDS011;57301;50.328;8.542;2023-08-24T12:44:49;7.32;;;3.90;;
69970;SDS011;57301;50.328;8.542;2023-08-24T12:47:18;9.48;;;3.70;;
69970;SDS011;57301;50.328;8.542;2023-08-24T12:49:46;5.70;;;3.45;;
69970;SDS011;57301;50.328;8.542;2023-08-24T12:52:13;6.50;;;3.80;;
69970;SDS011;57301;50.328;8.542;2023-08-24T12:54:39;9.52;;;4.07;;
69970;SDS011;57301;50.328;8.542;2023-08-24T12:57:06;6.03;;;3.80;;
69970;SDS011;57301;50.328;8.542;2023-08-24T12:59:32;7.82;;;4.32;;
69970;SDS011;57301;50.328;8.542;2023-08-24T13:01:59;8.30;;;4.05;;
69970;SDS011;57301;50.328;8.542;2023-08-24T13:04:26;6.40;;;4.20;;
69970;SDS011;57301;50.328;8.542;2023-08-24T13:06:54;7.25;;;4.35;;
69970;SDS011;57301;50.328;8.542;2023-08-24T13:09:20;7.97;;;4.50;;
69970;SDS011;57301;50.328;8.542;2023-08-24T13:11:48;7.05;;;4.60;;
69970;SDS011;57301;50.328;8.542;2023-08-24T13:14:15;6.38;;;4.45;;
69970;SDS011;57301;50.328;8.542;2023-08-24T13:16:42;7.90;;;4.37;;
69970;SDS011;57301;50.328;8.542;2023-08-24T13:19:08;7.35;;;4.10;;
69970;SDS011;57301;50.328;8.542;2023-08-24T13:21:35;9.90;;;4.80;;
69970;SDS011;57301;50.328;8.542;2023-08-24T13:24:01;8.27;;;4.30;;
69970;SDS011;57301;50.328;8.542;2023-08-24T13:26:28;8.73;;;4.50;;
69970;SDS011;57301;50.328;8.542;2023-08-24T13:28:54;6.40;;;4.20;;
69970;SDS011;57301;50.328;8.542;2023-08-24T13:31:21;8.18;;;4.25;;
69970;SDS011;57301;50.328;8.542;2023-08-24T13:33:47;7.05;;;4.47;;
69970;SDS011;57301;50.328;8.542;2023-08-24T13:36:13;7.03;;;4.53;;
69970;SDS011;57301;50.328;8.542;2023-08-24T13:38:40;6.75;;;4.40;;
69970;SDS011;57301;50.328;8.542;2023-08-24T13:41:07;6.77;;;4.33;;
69970;SDS011;57301;50.328;8.542;2023-08-24T13:43:33;8.25;;;4.60;;
69970;SDS011;57301;50.328;8.542;2023-08-24T13:46:00;7.05;;;4.50;;
69970;SDS011;57301;50.328;8.542;2023-08-24T13:48:30;7.85;;;4.50;;
69970;SDS011;57301;50.328;8.542;2023-08-24T13:51:00;5.82;;;4.20;;
69970;SDS011;57301;50.328;8.542;2023-08-24T13:53:26;6.50;;;4.23;;
69970;SDS011;57301;50.328;8.542;2023-08-24T13:55:53;5.97;;;4.32;;
69970;SDS011;57301;50.328;8.542;2023-08-24T13:58:19;7.10;;;4.25;;
69970;SDS011;57301;50.328;8.542;2023-08-24T14:00:46;8.43;;;4.53;;
69970;SDS011;57301;50.328;8.542;2023-08-24T14:03:12;6.80;;;4.97;;
69970;SDS011;57301;50.328;8.542;2023-08-24T14:05:39;7.17;;;4.50;;
69970;SDS011;57301;50.328;8.542;2023-08-24T14:08:06;8.82;;;5.07;;
69970;SDS011;57301;50.328;8.542;2023-08-24T14:10:34;7.50;;;4.97;;
69970;SDS011;57301;50.328;8.542;2023-08-24T14:13:01;7.90;;;5.15;;
69970;SDS011;57301;50.328;8.542;2023-08-24T14:15:27;9.40;;;4.93;;
69970;SDS011;57301;50.328;8.542;2023-08-24T14:17:54;9.10;;;4.90;;
69970;SDS011;57301;50.328;8.542;2023-08-24T14:20:20;7.18;;;4.97;;
69970;SDS011;57301;50.328;8.542;2023-08-24T14:22:47;7.60;;;4.75;;
69970;SDS011;57301;50.328;8.542;2023-08-24T14:25:14;7.63;;;4.70;;
69970;SDS011;57301;50.328;8.542;2023-08-24T14:27:41;7.18;;;4.63;;
69970;SDS011;57301;50.328;8.542;2023-08-24T14:30:16;9.37;;;4.77;;
69970;SDS011;57301;50.328;8.542;2023-08-24T14:32:42;6.43;;;5.18;;
69970;SDS011;57301;50.328;8.542;2023-08-24T14:35:09;6.85;;;4.60;;
69970;SDS011;57301;50.328;8.542;2023-08-24T14:37:35;7.88;;;4.70;;
69970;SDS011;57301;50.328;8.542;2023-08-24T14:40:05;7.32;;;4.47;;
69970;SDS011;57301;50.328;8.542;2023-08-24T14:42:32;7.53;;;4.47;;
69970;SDS011;57301;50.328;8.542;2023-08-24T14:44:58;9.65;;;4.55;;
69970;SDS011;57301;50.328;8.542;2023-08-24T14:47:25;6.35;;;4.43;;
69970;SDS011;57301;50.328;8.542;2023-08-24T14:49:52;5.72;;;4.40;;
69970;SDS011;57301;50.328;8.542;2023-08-24T14:52:18;6.25;;;4.28;;
69970;SDS011;57301;50.328;8.542;2023-08-24T14:54:45;6.20;;;4.40;;
69970;SDS011;57301;50.328;8.542;2023-08-24T14:57:11;8.48;;;4.93;;
69970;SDS011;57301;50.328;8.542;2023-08-24T14:59:37;9.65;;;4.60;;
69970;SDS011;57301;50.328;8.542;2023-08-24T15:02:05;8.18;;;4.85;;
69970;SDS011;57301;50.328;8.542;2023-08-24T15:04:32;8.50;;;4.80;;
69970;SDS011;57301;50.328;8.542;2023-08-24T15:06:59;7.50;;;4.50;;
69970;SDS011;57301;50.328;8.542;2023-08-24T15:09:26;8.05;;;5.18;;
69970;SDS011;57301;50.328;8.542;2023-08-24T15:11:52;6.80;;;4.50;;